createdAt,value
2023-05-03T00:01:44.143Z,100249.27
2023-05-03T00:04:11.298Z,100247.67
2023-05-03T00:06:38.297Z,100250.40
2023-05-03T00:09:05.297Z,100249.45
2023-05-03T00:11:32.124Z,100247.70
2023-05-03T00:13:58.960Z,100252.83
2023-05-03T00:16:26.017Z,100248.73
2023-05-03T00:18:52.957Z,100252.52
2023-05-03T00:21:19.827Z,100258.52
2023-05-03T00:23:46.800Z,100246.84
2023-05-03T00:26:13.671Z,100253.39
2023-05-03T00:28:41.044Z,100248.16
2023-05-03T00:31:09.439Z,100247.08
2023-05-03T00:33:37.616Z,100249.45
2023-05-03T00:36:11.483Z,100250.61
2023-05-03T00:38:39.611Z,100240.92
2023-05-03T00:41:06.964Z,100241.90
2023-05-03T00:43:34.403Z,100241.20
2023-05-03T00:46:15.328Z,100243.38
2023-05-03T00:48:50.656Z,100239.65
2023-05-03T00:51:18.724Z,100240.13
2023-05-03T00:53:45.644Z,100238.04
2023-05-03T00:56:12.757Z,100240.73
2023-05-03T00:58:40.409Z,100237.02
2023-05-03T01:01:07.864Z,100232.06
2023-05-03T01:03:38.066Z,100237.79
2023-05-03T01:06:14.112Z,100236.95
2023-05-03T01:08:55.088Z,100235.92
2023-05-03T01:11:39.327Z,100235.83
2023-05-03T01:14:11.196Z,100230.30
2023-05-03T01:16:47.839Z,100230.00
2023-05-03T01:19:39.005Z,100229.13
2023-05-03T01:22:26.648Z,100223.27
2023-05-03T01:25:02.789Z,100221.04
2023-05-03T01:27:29.797Z,100216.28
2023-05-03T01:29:59.063Z,100213.98
2023-05-03T01:32:43.122Z,100208.73
2023-05-03T01:35:20.402Z,100214.36
2023-05-03T01:37:48.337Z,100217.92
2023-05-03T01:40:17.032Z,100211.56
2023-05-03T01:42:46.422Z,100213.97
2023-05-03T01:45:15.049Z,100206.95
2023-05-03T01:47:41.915Z,100211.19
2023-05-03T01:50:09.628Z,100209.35
2023-05-03T01:52:39.387Z,100204.97
2023-05-03T01:55:06.701Z,100201.26
2023-05-03T01:57:34.931Z,100201.27
2023-05-03T02:00:02.849Z,100198.64
2023-05-03T02:02:39.594Z,100193.79
2023-05-03T02:05:06.954Z,100195.66
2023-05-03T02:07:34.147Z,100196.55
2023-05-03T02:10:01.399Z,100202.58
2023-05-03T02:12:28.675Z,100196.52
2023-05-03T02:14:55.631Z,100201.13
2023-05-03T02:17:26.826Z,100204.08
2023-05-03T02:19:53.756Z,100205.50
2023-05-03T02:22:20.662Z,100212.08
2023-05-03T02:24:51.487Z,100214.33
2023-05-03T02:27:18.327Z,100227.77
2023-05-03T02:29:45.610Z,100227.34
2023-05-03T02:32:12.776Z,100229.27
2023-05-03T02:34:39.798Z,100220.18
2023-05-03T02:37:07.708Z,100222.00
2023-05-03T02:39:34.628Z,100219.69
2023-05-03T02:42:02.815Z,100223.35
2023-05-03T02:44:31.313Z,100224.87
2023-05-03T02:46:59.942Z,100225.50
2023-05-03T02:49:27.358Z,100221.66
2023-05-03T02:51:54.264Z,100220.24
2023-05-03T02:54:21.582Z,100217.91
2023-05-03T02:56:48.704Z,100219.06
2023-05-03T02:59:16.105Z,100221.17
2023-05-03T03:01:43.540Z,100222.98
2023-05-03T03:04:11.889Z,100219.71
2023-05-03T03:06:38.877Z,100217.44
2023-05-03T03:09:06.248Z,100214.16
2023-05-03T03:11:35.212Z,100211.37
2023-05-03T03:14:02.062Z,100213.25
2023-05-03T03:16:29.090Z,100214.10
2023-05-03T03:18:56.031Z,100218.89
2023-05-03T03:21:24.970Z,100216.77
2023-05-03T03:23:52.122Z,100217.59
2023-05-03T03:26:19.398Z,100216.48
2023-05-03T03:28:46.569Z,100217.73
2023-05-03T03:31:13.718Z,100215.66
2023-05-03T03:33:41.460Z,100212.29
2023-05-03T03:36:10.912Z,100216.66
2023-05-03T03:38:38.638Z,100220.09
2023-05-03T03:41:06.021Z,100215.59
2023-05-03T03:43:33.074Z,100215.81
2023-05-03T03:46:00.310Z,100217.05
2023-05-03T03:48:27.331Z,100213.96
2023-05-03T03:50:54.325Z,100219.95
2023-05-03T03:53:22.159Z,100220.91
2023-05-03T03:55:49.056Z,100220.45
2023-05-03T03:58:16.814Z,100220.27
2023-05-03T04:00:44.281Z,100220.27
2023-05-03T04:03:13.829Z,100220.09
2023-05-03T04:05:41.224Z,100223.67
2023-05-03T04:08:09.557Z,100213.40
2023-05-03T04:10:36.840Z,100213.77
2023-05-03T04:13:04.619Z,100219.36
2023-05-03T04:15:32.057Z,100219.34
2023-05-03T04:18:00.122Z,100226.09
2023-05-03T04:20:27.493Z,100227.98
2023-05-03T04:22:54.486Z,100224.16
2023-05-03T04:25:27.299Z,100223.31
2023-05-03T04:27:58.994Z,100225.08
2023-05-03T04:30:26.292Z,100232.39
2023-05-03T04:32:54.627Z,100233.52
2023-05-03T04:35:22.805Z,100239.31
2023-05-03T04:37:51.930Z,100241.74
2023-05-03T04:40:21.508Z,100245.52
2023-05-03T04:42:54.983Z,100246.20
2023-05-03T04:45:22.159Z,100247.22
2023-05-03T04:47:49.656Z,100250.91
2023-05-03T04:50:16.745Z,100249.66
2023-05-03T04:52:45.253Z,100251.02
2023-05-03T04:55:13.111Z,100247.91
2023-05-03T04:57:40.519Z,100248.95
2023-05-03T05:00:12.007Z,100248.20
2023-05-03T05:02:43.090Z,100257.98
2023-05-03T05:05:11.306Z,100249.94
2023-05-03T05:07:38.380Z,100257.70
2023-05-03T05:10:06.774Z,100256.57
2023-05-03T05:12:36.701Z,100265.48
2023-05-03T05:15:04.654Z,100266.25
2023-05-03T05:17:32.097Z,100255.32
2023-05-03T05:19:59.476Z,100261.02
2023-05-03T05:22:28.157Z,100260.36
2023-05-03T05:24:57.821Z,100267.71
2023-05-03T05:27:27.038Z,100270.06
2023-05-03T05:29:54.170Z,100261.19
2023-05-03T05:32:22.375Z,100265.31
2023-05-03T05:34:55.568Z,100260.31
2023-05-03T05:37:27.599Z,100260.09
2023-05-03T05:39:56.566Z,100259.23
2023-05-03T05:42:25.631Z,100256.66
2023-05-03T05:44:52.776Z,100247.83
2023-05-03T05:47:20.370Z,100252.15
2023-05-03T05:49:48.333Z,100247.86
2023-05-03T05:52:15.699Z,100246.50
2023-05-03T05:54:42.573Z,100235.77
2023-05-03T05:57:09.758Z,100249.38
2023-05-03T05:59:37.048Z,100249.28
2023-05-03T06:02:04.615Z,100244.11
2023-05-03T06:04:31.712Z,100252.35
2023-05-03T06:06:58.859Z,100234.31
2023-05-03T06:09:26.098Z,100248.40
2023-05-03T06:12:00.507Z,100241.88
2023-05-03T06:14:28.910Z,100247.54
2023-05-03T06:16:56.325Z,100232.46
2023-05-03T06:19:24.843Z,100238.20
2023-05-03T06:21:55.152Z,100233.84
2023-05-03T06:24:23.397Z,100231.38
2023-05-03T06:26:53.587Z,100231.18
2023-05-03T06:29:21.391Z,100235.23
2023-05-03T06:31:48.620Z,100225.56
2023-05-03T06:34:20.528Z,100230.25
2023-05-03T06:36:51.269Z,100225.48
2023-05-03T06:39:18.672Z,100220.91
2023-05-03T06:41:48.993Z,100220.02
2023-05-03T06:44:17.923Z,100218.87
2023-05-03T06:46:46.239Z,100215.16
2023-05-03T06:49:13.197Z,100219.86
2023-05-03T06:51:41.018Z,100219.56
2023-05-03T06:54:09.535Z,100212.98
2023-05-03T06:56:36.634Z,100213.15
2023-05-03T06:59:03.863Z,100212.62
2023-05-03T07:01:34.404Z,100216.25
2023-05-03T07:04:01.507Z,100215.05
2023-05-03T07:06:28.562Z,100219.50
2023-05-03T07:08:55.475Z,100210.47
2023-05-03T07:11:25.181Z,100204.50
2023-05-03T07:13:52.886Z,100201.42
2023-05-03T07:16:20.137Z,100199.30
2023-05-03T07:18:47.625Z,100196.92
2023-05-03T07:21:15.055Z,100206.93
2023-05-03T07:23:42.010Z,100198.06
2023-05-03T07:26:09.003Z,100207.25
2023-05-03T07:28:35.818Z,100198.02
2023-05-03T07:31:04.195Z,100185.77
2023-05-03T07:33:37.859Z,100194.06
2023-05-03T07:36:05.930Z,100200.09
2023-05-03T07:38:34.101Z,100187.14
2023-05-03T07:41:01.181Z,100198.80
2023-05-03T07:43:30.451Z,100188.70
2023-05-03T07:45:57.381Z,100190.13
2023-05-03T07:48:24.376Z,100191.76
2023-05-03T07:50:54.439Z,100192.36
2023-05-03T07:53:22.740Z,100184.80
2023-05-03T07:55:49.708Z,100185.74
2023-05-03T07:58:17.495Z,100186.52
2023-05-03T08:00:47.852Z,100186.29
2023-05-03T08:03:14.907Z,100178.02
2023-05-03T08:05:42.339Z,100179.69
2023-05-03T08:08:10.475Z,100180.60
2023-05-03T08:10:38.087Z,100177.30
2023-05-03T08:13:06.500Z,100177.02
2023-05-03T08:15:33.832Z,100180.33
2023-05-03T08:18:00.810Z,100178.38
2023-05-03T08:20:27.874Z,100182.66
2023-05-03T08:22:56.932Z,100186.86
2023-05-03T08:25:25.868Z,100179.56
2023-05-03T08:27:52.910Z,100188.60
2023-05-03T08:30:22.265Z,100183.00
2023-05-03T08:32:50.028Z,100178.20
2023-05-03T08:35:17.428Z,100183.91
2023-05-03T08:37:45.656Z,100177.69
2023-05-03T08:40:14.475Z,100181.89
2023-05-03T08:42:45.181Z,100176.91
2023-05-03T08:45:14.835Z,100181.95
2023-05-03T08:47:45.545Z,100179.55
2023-05-03T08:50:14.060Z,100171.17
2023-05-03T08:52:42.691Z,100170.71
2023-05-03T08:55:10.128Z,100180.27
2023-05-03T08:57:37.188Z,100174.17
2023-05-03T09:00:06.604Z,100188.76
2023-05-03T09:02:39.220Z,100192.73
2023-05-03T09:05:15.864Z,100192.99
2023-05-03T09:08:08.477Z,100173.77
2023-05-03T09:10:39.912Z,100177.21
2023-05-03T09:13:07.911Z,100170.89
2023-05-03T09:15:34.981Z,100173.91
2023-05-03T09:18:12.334Z,100165.73
2023-05-03T09:20:40.305Z,100171.81
2023-05-03T09:23:08.868Z,100171.73
2023-05-03T09:25:49.200Z,100175.86
2023-05-03T09:28:16.632Z,100178.36
2023-05-03T09:30:47.388Z,100184.95
2023-05-03T09:33:21.628Z,100180.88
2023-05-03T09:35:59.247Z,100172.36
2023-05-03T09:38:28.247Z,100171.86
2023-05-03T09:40:55.184Z,100185.91
2023-05-03T09:43:22.110Z,100185.85
2023-05-03T09:45:49.036Z,100183.96
2023-05-03T09:48:16.044Z,100175.52
2023-05-03T09:50:46.370Z,100186.84
2023-05-03T09:53:13.294Z,100192.30
2023-05-03T09:55:40.718Z,100185.96
2023-05-03T09:58:07.868Z,100175.77
2023-05-03T10:00:39.727Z,100175.11
2023-05-03T10:03:11.433Z,100182.73
2023-05-03T10:05:48.183Z,100181.23
2023-05-03T10:08:18.164Z,100179.52
2023-05-03T10:10:45.047Z,100188.64
2023-05-03T10:13:12.519Z,100192.58
2023-05-03T10:15:41.696Z,100181.13
2023-05-03T10:18:08.720Z,100176.69
2023-05-03T10:20:39.948Z,100178.98
2023-05-03T10:23:08.121Z,100181.10
2023-05-03T10:25:36.183Z,100175.10
2023-05-03T10:28:03.906Z,100177.98
2023-05-03T10:30:33.018Z,100165.98
2023-05-03T10:33:20.350Z,100181.71
2023-05-03T10:35:53.996Z,100167.85
2023-05-03T10:38:24.701Z,100174.48
2023-05-03T10:40:52.069Z,100175.64
2023-05-03T10:43:34.190Z,100176.17
2023-05-03T10:46:02.170Z,100178.61
2023-05-03T10:48:29.884Z,100182.77
2023-05-03T10:50:57.257Z,100172.17
2023-05-03T10:53:41.242Z,100176.73
2023-05-03T10:56:12.745Z,100176.52
2023-05-03T10:58:47.395Z,100170.58
2023-05-03T11:01:18.816Z,100166.31
2023-05-03T11:03:52.427Z,100163.92
2023-05-03T11:06:28.581Z,100167.11
2023-05-03T11:08:55.591Z,100181.71
2023-05-03T11:11:22.642Z,100171.52
2023-05-03T11:13:52.833Z,100165.98
2023-05-03T11:16:20.189Z,100155.66
2023-05-03T11:18:48.902Z,100150.50
2023-05-03T11:21:18.736Z,100156.92
2023-05-03T11:23:45.775Z,100168.40
2023-05-03T11:26:13.157Z,100164.84
2023-05-03T11:28:43.171Z,100173.35
2023-05-03T11:31:10.424Z,100170.46
2023-05-03T11:33:38.166Z,100157.77
2023-05-03T11:36:06.551Z,100157.08
2023-05-03T11:38:33.936Z,100159.83
2023-05-03T11:41:01.211Z,100163.56
2023-05-03T11:43:29.183Z,100159.08
2023-05-03T11:45:57.803Z,100165.09
2023-05-03T11:48:26.172Z,100164.08
2023-05-03T11:50:56.944Z,100151.77
2023-05-03T11:53:24.541Z,100156.61
2023-05-03T11:55:53.903Z,100152.63
2023-05-03T11:58:25.079Z,100148.91
2023-05-03T12:00:59.614Z,100150.70
2023-05-03T12:03:31.896Z,100148.50
2023-05-03T12:05:59.828Z,100142.27
2023-05-03T12:08:31.680Z,100132.95
2023-05-03T12:11:06.452Z,100136.98
2023-05-03T12:13:38.877Z,100130.68
2023-05-03T12:16:12.584Z,100132.86
2023-05-03T12:18:47.766Z,100127.05
2023-05-03T12:23:46.056Z,100122.41
2023-05-03T12:26:14.530Z,100127.52
2023-05-03T12:28:41.935Z,100121.45
2023-05-03T12:31:09.249Z,100106.75
2023-05-03T12:33:38.573Z,100106.08
2023-05-03T12:36:09.416Z,100099.16
2023-05-03T12:38:37.751Z,100104.85
2023-05-03T12:41:08.742Z,100101.70
2023-05-03T12:43:36.653Z,100099.48
2023-05-03T12:46:25.782Z,100093.38
2023-05-03T12:48:54.041Z,100087.42
2023-05-03T12:51:25.737Z,100082.50
2023-05-03T12:53:55.044Z,100084.33
2023-05-03T12:56:25.036Z,100084.88
2023-05-03T12:59:14.984Z,100081.78
2023-05-03T13:06:43.722Z,100077.17
2023-05-03T13:09:19.356Z,100077.09
2023-05-03T13:11:49.207Z,100076.81
2023-05-03T13:14:16.533Z,100067.66
2023-05-03T13:16:44.674Z,100062.96
2023-05-03T13:19:12.835Z,100060.61
2023-05-03T13:21:39.731Z,100066.65
2023-05-03T13:24:06.964Z,100063.63
2023-05-03T13:26:33.804Z,100062.69
2023-05-03T13:29:03.318Z,100062.78
2023-05-03T13:31:30.356Z,100058.43
2023-05-03T13:33:57.513Z,100055.23
2023-05-03T13:36:24.668Z,100060.36
2023-05-03T13:38:52.137Z,100061.10
2023-05-03T13:41:19.602Z,100058.75
2023-05-03T13:43:47.605Z,100059.60
2023-05-03T13:46:15.150Z,100060.56
2023-05-03T13:48:42.469Z,100058.20
2023-05-03T13:51:10.370Z,100060.80
2023-05-03T13:53:37.359Z,100062.83
2023-05-03T13:56:08.419Z,100058.73
2023-05-03T13:58:36.361Z,100062.17
2023-05-03T14:01:03.662Z,100058.80
2023-05-03T14:03:32.137Z,100060.73
2023-05-03T14:05:59.121Z,100062.35
2023-05-03T14:08:26.153Z,100069.94
2023-05-03T14:10:53.092Z,100071.95
2023-05-03T14:13:19.981Z,100074.73
2023-05-03T14:15:47.134Z,100068.51
2023-05-03T14:18:14.452Z,100073.29
2023-05-03T14:20:41.505Z,100071.94
2023-05-03T14:23:08.448Z,100073.46
2023-05-03T14:25:35.648Z,100071.11
2023-05-03T14:28:05.675Z,100071.83
2023-05-03T14:30:33.229Z,100067.25
2023-05-03T14:33:00.503Z,100070.81
2023-05-03T14:35:27.458Z,100073.31
2023-05-03T14:37:54.703Z,100073.45
2023-05-03T14:40:21.971Z,100070.45
2023-05-03T14:42:49.017Z,100072.27
2023-05-03T14:45:16.005Z,100074.23
2023-05-03T14:47:42.969Z,100076.15
2023-05-03T14:50:10.747Z,100072.30
2023-05-03T14:52:40.409Z,100068.21
2023-05-03T14:55:08.050Z,100072.11
2023-05-03T14:57:36.420Z,100072.83
2023-05-03T15:00:05.187Z,100074.11
2023-05-03T15:02:32.422Z,100074.84
2023-05-03T15:05:00.176Z,100077.93
2023-05-03T15:07:27.377Z,100073.98
2023-05-03T15:09:54.341Z,100072.39
2023-05-03T15:12:21.211Z,100076.39
2023-05-03T15:14:48.472Z,100079.17
2023-05-03T15:17:15.413Z,100078.66
2023-05-03T15:19:42.286Z,100075.39
2023-05-03T15:22:09.115Z,100075.16
2023-05-03T15:24:35.919Z,100077.06
2023-05-03T15:27:03.066Z,100075.65
2023-05-03T15:29:30.099Z,100074.86
2023-05-03T15:31:56.889Z,100070.06
2023-05-03T15:34:23.837Z,100072.20
2023-05-03T15:36:50.714Z,100071.94
2023-05-03T15:39:17.634Z,100072.75
2023-05-03T15:41:45.874Z,100071.10
2023-05-03T15:44:15.036Z,100070.52
2023-05-03T15:46:43.026Z,100071.21
2023-05-03T15:49:10.289Z,100075.06
2023-05-03T15:51:37.167Z,100079.17
2023-05-03T15:54:04.225Z,100075.71
2023-05-03T15:56:31.652Z,100072.95
2023-05-03T15:58:58.484Z,100076.67
2023-05-03T16:01:25.579Z,100078.42
2023-05-03T16:03:52.576Z,100076.42
2023-05-03T16:06:19.416Z,100076.30
2023-05-03T16:08:46.410Z,100076.59
2023-05-03T16:11:13.522Z,100075.55
2023-05-03T16:13:40.545Z,100082.80
2023-05-03T16:16:07.517Z,100074.36
2023-05-03T16:18:34.475Z,100081.04
2023-05-03T16:21:02.174Z,100084.94
2023-05-03T16:23:28.978Z,100090.08
2023-05-03T16:25:56.727Z,100089.28
2023-05-03T16:28:23.681Z,100094.05
2023-05-03T16:30:50.689Z,100095.06
2023-05-03T16:33:18.202Z,100099.20
2023-05-03T16:35:45.084Z,100097.58
2023-05-03T16:38:12.296Z,100096.09
2023-05-03T16:40:40.696Z,100101.40
2023-05-03T16:43:07.980Z,100106.13
2023-05-03T16:45:34.890Z,100107.45
2023-05-03T16:48:04.818Z,100107.55
2023-05-03T16:50:33.105Z,100109.71
2023-05-03T16:53:04.238Z,100112.89
2023-05-03T16:55:31.191Z,100113.23
2023-05-03T16:58:01.076Z,100114.84
2023-05-03T17:00:29.009Z,100119.25
2023-05-03T17:03:20.808Z,100121.58
2023-05-03T17:05:47.807Z,100120.41
2023-05-03T17:08:15.561Z,100120.50
2023-05-03T17:10:42.782Z,100124.45
2023-05-03T17:13:10.212Z,100124.52
2023-05-03T17:15:37.309Z,100126.66
2023-05-03T17:18:05.074Z,100123.10
2023-05-03T17:20:33.097Z,100126.29
2023-05-03T17:23:00.026Z,100126.08
2023-05-03T17:25:27.173Z,100128.52
2023-05-03T17:27:54.022Z,100128.63
2023-05-03T17:30:21.516Z,100131.13
2023-05-03T17:32:48.713Z,100133.47
2023-05-03T17:35:15.769Z,100134.67
2023-05-03T17:37:42.646Z,100139.25
2023-05-03T17:40:10.390Z,100133.60
2023-05-03T17:42:37.235Z,100138.77
2023-05-03T17:45:05.371Z,100142.36
2023-05-03T17:47:32.514Z,100140.48
2023-05-03T17:49:59.580Z,100139.61
2023-05-03T17:52:26.550Z,100142.36
2023-05-03T17:54:54.729Z,100145.29
2023-05-03T17:57:21.686Z,100151.02
2023-05-03T17:59:48.694Z,100157.64
2023-05-03T18:02:15.698Z,100165.98
2023-05-03T18:04:42.549Z,100165.14
2023-05-03T18:07:09.377Z,100166.49
2023-05-03T18:09:36.484Z,100173.63
2023-05-03T18:12:04.051Z,100178.41
2023-05-03T18:14:31.075Z,100181.27
2023-05-03T18:16:58.903Z,100189.13
2023-05-03T18:19:25.895Z,100192.88
2023-05-03T18:21:52.800Z,100198.30
2023-05-03T18:24:19.735Z,100198.79
2023-05-03T18:26:47.335Z,100201.23
2023-05-03T18:29:14.267Z,100199.55
2023-05-03T18:31:41.836Z,100201.80
2023-05-03T18:34:12.266Z,100199.69
2023-05-03T18:36:39.164Z,100203.35
2023-05-03T18:39:06.073Z,100198.54
2023-05-03T18:41:32.983Z,100203.15
2023-05-03T18:43:59.820Z,100209.98
2023-05-03T18:46:27.228Z,100208.01
2023-05-03T18:48:54.241Z,100212.95
2023-05-03T18:51:21.170Z,100217.13
2023-05-03T18:53:48.026Z,100214.33
2023-05-03T18:56:15.246Z,100215.14
2023-05-03T18:58:42.087Z,100220.58
2023-05-03T19:01:09.036Z,100221.23
2023-05-03T19:03:36.223Z,100228.52
2023-05-03T19:06:11.685Z,100228.38
2023-05-03T19:08:38.679Z,100230.21
2023-05-03T19:11:09.790Z,100230.20
2023-05-03T19:13:36.915Z,100231.49
2023-05-03T19:16:03.968Z,100237.23
2023-05-03T19:18:31.801Z,100236.50
2023-05-03T19:20:58.854Z,100238.09
2023-05-03T19:23:25.789Z,100240.64
2023-05-03T19:25:52.677Z,100246.48
2023-05-03T19:28:19.624Z,100248.13
2023-05-03T19:30:51.545Z,100251.79
2023-05-03T19:33:21.614Z,100257.14
2023-05-03T19:35:48.625Z,100264.26
2023-05-03T19:38:15.631Z,100267.83
2023-05-03T19:40:42.857Z,100262.52
2023-05-03T19:43:09.745Z,100266.67
2023-05-03T19:45:42.042Z,100270.41
2023-05-03T19:48:10.455Z,100270.43
2023-05-03T19:50:37.625Z,100266.59
2023-05-03T19:53:04.544Z,100266.73
2023-05-03T19:55:31.603Z,100264.43
2023-05-03T19:57:58.490Z,100268.20
2023-05-03T20:00:27.187Z,100269.68
2023-05-03T20:02:54.366Z,100268.21
2023-05-03T20:05:21.297Z,100266.89
2023-05-03T20:07:49.253Z,100267.31
2023-05-03T20:10:16.310Z,100271.60
2023-05-03T20:12:43.289Z,100278.04
2023-05-03T20:15:11.568Z,100278.39
2023-05-03T20:17:38.874Z,100279.21
2023-05-03T20:20:07.377Z,100281.04
2023-05-03T20:22:34.205Z,100284.35
2023-05-03T20:25:01.213Z,100290.11
2023-05-03T20:27:28.211Z,100287.77
2023-05-03T20:29:55.416Z,100290.48
2023-05-03T20:32:22.455Z,100288.98
2023-05-03T20:34:52.677Z,100292.96
2023-05-03T20:37:19.944Z,100291.80
2023-05-03T20:39:47.297Z,100292.47
2023-05-03T20:42:14.199Z,100293.79
2023-05-03T20:44:44.591Z,100294.23
2023-05-03T20:47:11.444Z,100294.98
2023-05-03T20:49:40.308Z,100292.73
2023-05-03T20:52:07.200Z,100292.72
2023-05-03T20:54:34.033Z,100298.63
2023-05-03T20:57:00.953Z,100299.73
2023-05-03T20:59:28.124Z,100295.52
2023-05-03T21:01:56.054Z,100294.63
2023-05-03T21:04:24.529Z,100302.96
2023-05-03T21:06:51.346Z,100303.77
2023-05-03T21:09:18.284Z,100305.04
2023-05-03T21:11:45.139Z,100309.89
2023-05-03T21:14:12.337Z,100312.92
2023-05-03T21:16:39.524Z,100312.40
2023-05-03T21:19:06.437Z,100314.35
2023-05-03T21:21:33.268Z,100316.18
2023-05-03T21:24:00.264Z,100314.52
2023-05-03T21:26:27.105Z,100315.67
2023-05-03T21:28:54.268Z,100315.20
2023-05-03T21:31:21.414Z,100315.25
2023-05-03T21:33:48.297Z,100319.36
2023-05-03T21:36:15.135Z,100320.57
2023-05-03T21:38:42.027Z,100317.28
2023-05-03T21:41:09.002Z,100317.73
2023-05-03T21:43:36.040Z,100318.45
2023-05-03T21:46:06.871Z,100318.19
2023-05-03T21:48:34.692Z,100320.83
2023-05-03T21:51:01.499Z,100323.29
2023-05-03T21:53:28.934Z,100321.08
2023-05-03T21:55:56.160Z,100319.07
2023-05-03T21:58:23.086Z,100319.07
2023-05-03T22:00:49.933Z,100320.42
2023-05-03T22:03:17.037Z,100318.83
2023-05-03T22:05:47.850Z,100315.15
2023-05-03T22:08:18.215Z,100314.11
2023-05-03T22:10:45.726Z,100311.31
2023-05-03T22:13:13.227Z,100310.30
2023-05-03T22:15:40.364Z,100308.09
2023-05-03T22:18:07.510Z,100302.29
2023-05-03T22:20:34.584Z,100302.99
2023-05-03T22:23:01.435Z,100300.52
2023-05-03T22:25:30.704Z,100304.77
2023-05-03T22:27:59.137Z,100309.58
2023-05-03T22:30:25.998Z,100306.55
2023-05-03T22:32:53.332Z,100303.98
2023-05-03T22:35:20.295Z,100307.44
2023-05-03T22:37:47.161Z,100306.78
2023-05-03T22:40:14.072Z,100308.26
2023-05-03T22:42:40.941Z,100311.33
2023-05-03T22:45:08.877Z,100311.49
2023-05-03T22:47:35.729Z,100312.90
2023-05-03T22:50:02.973Z,100307.79
2023-05-03T22:52:31.810Z,100304.65
2023-05-03T22:54:58.850Z,100307.79
2023-05-03T22:57:26.295Z,100312.73
2023-05-03T22:59:53.228Z,100315.18
2023-05-03T23:02:20.753Z,100312.63
2023-05-03T23:04:47.677Z,100313.71
2023-05-03T23:07:15.560Z,100310.50
2023-05-03T23:09:42.516Z,100308.89
2023-05-03T23:12:09.836Z,100304.10
2023-05-03T23:14:37.722Z,100297.08
2023-05-03T23:17:04.712Z,100295.98
2023-05-03T23:19:31.633Z,100291.14
2023-05-03T23:21:58.444Z,100288.33
2023-05-03T23:24:25.382Z,100287.02
2023-05-03T23:26:52.281Z,100282.84
2023-05-03T23:29:19.800Z,100283.23
2023-05-03T23:31:47.302Z,100284.17
2023-05-03T23:34:14.561Z,100283.91
2023-05-03T23:36:41.406Z,100282.52
2023-05-03T23:39:08.334Z,100284.77
2023-05-03T23:41:35.270Z,100284.46
2023-05-03T23:44:02.279Z,100284.27
2023-05-03T23:46:29.335Z,100280.45
2023-05-03T23:48:56.324Z,100281.41
2023-05-03T23:51:23.336Z,100281.06
2023-05-03T23:53:51.624Z,100278.34
2023-05-03T23:56:18.616Z,100273.70
2023-05-03T23:58:45.531Z,100272.36
